Time;durP1;ratioP1;P1;durP2;ratioP2;P2;SDS_P1;SDS_P2;PMS_P1;PMS_P2;Temp;Humidity;BMP_temperature;BMP_pressure;BME280_temperature;BME280_humidity;BME280_pressure;Samples;Min_cycle;Max_cycle;Signal;HPM_P1;HPM_P2
2022/05/08 05:31:45;;;;;;;13.20;8.85;;;;;;;13.74;83.59;99876.86;1837387;75;26277;-66
2022/05/08 05:34:12;;;;;;;38.80;9.75;;;;;;;14.07;81.26;99879.62;1809543;77;21563;-67
2022/05/08 05:36:40;;;;;;;15.25;8.88;;;;;;;14.14;74.99;99880.71;1816043;78;21250;-66
2022/05/08 05:39:07;;;;;;;17.27;9.08;;;;;;;14.40;77.14;99880.70;1769512;79;20874;-67
2022/05/08 05:41:34;;;;;;;25.15;10.75;;;;;;;14.65;74.16;99879.89;1791108;79;21474;-66
2022/05/08 05:44:04;;;;;;;15.28;8.48;;;;;;;15.06;75.32;99881.95;1785521;79;20885;-64
2022/05/08 05:49:16;;;;;;;14.28;7.95;;;;;;;15.88;67.07;99895.69;1822240;78;21163;-65
2022/05/08 05:51:43;;;;;;;18.37;8.95;;;;;;;16.24;63.33;99897.58;1821907;78;20869;-66
2022/05/08 05:54:10;;;;;;;18.27;9.40;;;;;;;16.27;62.73;99899.19;1822246;78;20837;-65
2022/05/08 05:56:36;;;;;;;16.35;8.35;;;;;;;16.48;62.33;99893.04;1785832;80;21446;-66
2022/05/08 05:59:03;;;;;;;14.63;8.08;;;;;;;16.79;59.71;99899.58;1785882;80;20877;-64
2022/05/08 06:01:30;;;;;;;13.30;8.30;;;;;;;17.11;59.40;99898.16;1822365;78;21091;-65
2022/05/08 06:03:56;;;;;;;15.25;8.70;;;;;;;17.12;58.49;99902.47;1821950;78;21398;-66
2022/05/08 06:06:23;;;;;;;18.60;7.75;;;;;;;17.58;56.70;99908.70;1786147;80;20877;-65
2022/05/08 06:08:50;;;;;;;10.90;6.47;;;;;;;17.46;55.63;99898.26;1785677;80;20896;-66
2022/05/08 06:11:18;;;;;;;11.00;7.75;;;;;;;17.46;55.63;99898.26;1803475;78;20858;-66
2022/05/08 06:13:45;;;;;;;10.65;6.25;;;;;;;17.06;56.50;99898.22;1811812;78;21200;-66
2022/05/08 06:16:12;;;;;;;38.58;9.18;;;;;;;17.01;57.67;99899.63;1785657;80;20873;-66
2022/05/08 06:18:39;;;;;;;11.35;7.65;;;;;;;17.33;56.41;99905.77;1786019;80;20893;-66
2022/05/08 06:21:05;;;;;;;15.32;8.30;;;;;;;17.34;57.09;99904.13;1821959;78;20912;-69
2022/05/08 06:23:33;;;;;;;9.75;6.72;;;;;;;17.83;56.02;99903.49;1822250;78;20841;-67
2022/05/08 06:26:02;;;;;;;13.10;7.72;;;;;;;18.12;55.11;99912.05;1785927;80;21199;-66
2022/05/08 06:28:31;;;;;;;14.00;7.12;;;;;;;18.47;53.85;99916.65;1785956;80;20901;-66
2022/05/08 06:30:57;;;;;;;10.03;7.40;;;;;;;18.52;51.61;99918.75;1785751;80;25555;-66
2022/05/08 06:33:24;;;;;;;10.72;6.62;;;;;;;18.76;51.08;99913.73;1786103;79;20830;-66
2022/05/08 06:35:51;;;;;;;14.05;7.75;;;;;;;19.11;50.81;99914.17;1821936;78;20877;-66
2022/05/08 06:38:17;;;;;;;11.50;6.85;;;;;;;19.17;51.42;99915.14;1822303;78;21131;-67
2022/05/08 06:40:45;;;;;;;9.20;6.10;;;;;;;19.28;50.83;99904.88;1822035;78;20830;-66
2022/05/08 06:43:11;;;;;;;14.18;6.60;;;;;;;19.37;51.16;99903.59;1785260;80;20842;-67
2022/05/08 06:45:38;;;;;;;16.67;8.03;;;;;;;19.49;51.06;99909.33;1785508;80;21312;-67
2022/05/08 06:48:08;;;;;;;12.40;7.00;;;;;;;19.84;50.10;99900.98;1785192;80;20920;-67
2022/05/08 06:50:35;;;;;;;11.25;6.50;;;;;;;20.12;48.86;99903.61;1785379;80;21032;-69
2022/05/08 06:53:04;;;;;;;13.70;7.05;;;;;;;19.98;50.51;99896.84;1821515;78;20884;-67
2022/05/08 06:55:33;;;;;;;24.67;7.22;;;;;;;19.91;52.08;99898.62;1785675;80;20854;-67
2022/05/08 06:58:00;;;;;;;10.63;6.42;;;;;;;20.07;51.01;99907.27;1774234;79;20935;-66
2022/05/08 07:03:11;;;;;;;16.02;6.87;;;;;;;20.12;49.80;99903.05;1814997;78;21872;-66
2022/05/08 07:05:40;;;;;;;13.28;6.20;;;;;;;20.22;50.79;99903.36;1821544;78;20865;-67
2022/05/08 07:08:06;;;;;;;10.65;5.50;;;;;;;20.02;50.87;99899.77;1795194;79;20866;-67
2022/05/08 07:10:34;;;;;;;10.28;6.37;;;;;;;20.06;49.73;99902.11;1790147;79;20877;-68
2022/05/08 07:13:01;;;;;;;12.23;6.12;;;;;;;20.22;48.73;99907.45;1785251;80;20920;-68
2022/05/08 07:15:27;;;;;;;12.33;5.20;;;;;;;20.57;48.25;99903.63;1785524;80;21245;-64
2022/05/08 07:17:54;;;;;;;7.85;4.72;;;;;;;20.84;47.28;99910.02;1821513;78;20862;-67
2022/05/08 07:20:21;;;;;;;9.65;5.90;;;;;;;19.98;48.49;99905.02;1785562;80;21542;-65
2022/05/08 07:22:49;;;;;;;11.30;6.70;;;;;;;19.59;49.26;99906.39;1821516;78;20838;-66
2022/05/08 07:25:16;;;;;;;12.85;6.08;;;;;;;19.69;50.26;99908.12;1785410;80;21431;-68
2022/05/08 07:27:43;;;;;;;19.92;6.05;;;;;;;19.79;49.91;99910.61;1821516;78;21216;-68
2022/05/08 07:30:11;;;;;;;18.60;5.75;;;;;;;19.91;49.65;99902.70;1821370;78;20842;-68
2022/05/08 07:32:38;;;;;;;12.80;5.65;;;;;;;19.68;50.86;99905.95;1821731;78;20833;-67
2022/05/08 07:37:50;;;;;;;9.90;5.50;;;;;;;20.29;49.07;99911.92;1821636;78;20933;-66
2022/05/08 07:40:17;;;;;;;11.63;5.90;;;;;;;19.87;48.37;99907.74;1785308;80;21203;-68
2022/05/08 07:42:44;;;;;;;10.30;5.85;;;;;;;19.65;48.93;99912.55;1785634;80;20862;-67
2022/05/08 07:45:12;;;;;;;7.60;5.62;;;;;;;19.65;49.22;99915.27;1821373;78;20916;-67
2022/05/08 07:47:40;;;;;;;20.57;5.80;;;;;;;19.87;49.53;99907.17;1785340;80;20913;-68
2022/05/08 07:50:08;;;;;;;11.30;5.85;;;;;;;19.93;48.84;99913.30;1821402;78;21418;-67
2022/05/08 07:52:39;;;;;;;12.25;5.30;;;;;;;19.47;50.31;99912.34;1821519;77;21094;-67
2022/05/08 07:55:07;;;;;;;6.85;5.67;;;;;;;19.42;51.06;99908.94;1821314;78;21406;-67
2022/05/08 07:57:34;;;;;;;11.30;5.65;;;;;;;19.17;51.07;99912.98;1821683;78;20846;-67
2022/05/08 08:00:03;;;;;;;6.83;4.97;;;;;;;19.08;51.33;99914.78;1785100;80;20862;-67
2022/05/08 08:02:30;;;;;;;6.35;5.17;;;;;;;19.11;51.12;99915.00;1821588;78;20912;-66
2022/05/08 08:04:56;;;;;;;10.25;6.12;;;;;;;18.93;51.82;99920.76;1785634;80;21164;-66
2022/05/08 08:07:23;;;;;;;9.05;6.33;;;;;;;19.44;51.47;99912.96;1785389;80;20893;-66
2022/05/08 08:09:49;;;;;;;6.47;5.00;;;;;;;19.97;49.03;99918.96;1785327;80;20854;-66
2022/05/08 08:12:17;;;;;;;12.37;5.95;;;;;;;20.00;47.89;99919.70;1785354;80;20905;-67
2022/05/08 08:14:43;;;;;;;9.63;5.62;;;;;;;20.80;46.41;99911.76;1785378;80;20854;-67
2022/05/08 08:17:10;;;;;;;6.50;4.67;;;;;;;21.69;45.02;99910.65;1785086;80;21093;-68
2022/05/08 08:19:36;;;;;;;10.65;5.42;;;;;;;21.27;44.10;99917.03;1821517;78;20833;-67
2022/05/08 08:22:03;;;;;;;8.73;4.95;;;;;;;21.34;44.28;99914.65;1821274;78;20924;-67
2022/05/08 08:24:30;;;;;;;8.58;5.05;;;;;;;21.52;43.78;99918.25;1821410;78;20916;-67
2022/05/08 08:26:57;;;;;;;6.25;4.20;;;;;;;21.10;43.15;99909.58;1821661;78;20924;-68
2022/05/08 08:29:23;;;;;;;13.40;4.70;;;;;;;21.54;42.70;99915.21;1821616;78;21083;-67
2022/05/08 08:31:50;;;;;;;6.08;4.25;;;;;;;21.68;41.73;99913.16;1821333;78;20830;-66
2022/05/08 08:34:16;;;;;;;7.33;4.80;;;;;;;21.94;40.79;99916.45;1821251;78;20908;-67
2022/05/08 08:36:43;;;;;;;10.82;5.10;;;;;;;21.86;39.89;99913.97;1821513;78;20881;-65
2022/05/08 08:39:09;;;;;;;6.20;5.00;;;;;;;21.99;39.62;99913.00;1821315;78;20873;-67
2022/05/08 08:41:38;;;;;;;8.13;4.75;;;;;;;22.18;39.72;99907.78;1821354;78;21209;-68
2022/05/08 08:49:25;;;;;;;9.70;4.22;;;;;;;21.86;40.19;99909.87;1785277;80;20883;-68
2022/05/08 08:51:52;;;;;;;6.00;4.33;;;;;;;22.09;40.16;99906.97;1785497;80;20921;-67
2022/05/08 08:54:19;;;;;;;7.28;4.90;;;;;;;21.74;39.56;99907.77;1821549;78;21107;-68
2022/05/08 08:56:48;;;;;;;5.53;4.03;;;;;;;21.30;40.61;99911.50;1821504;78;20869;-66
2022/05/08 08:59:14;;;;;;;7.95;4.75;;;;;;;21.77;39.98;99914.52;1784876;80;20854;-66
2022/05/08 09:01:43;;;;;;;5.33;3.83;;;;;;;22.18;39.71;99907.78;1785383;80;20935;-67
2022/05/08 09:04:12;;;;;;;8.30;4.70;;;;;;;22.24;39.22;99910.60;1821382;78;20908;-67
2022/05/08 09:06:43;;;;;;;7.70;4.60;;;;;;;22.46;39.36;99904.97;1820765;78;21717;-68
2022/05/08 09:09:24;;;;;;;9.80;4.97;;;;;;;23.02;38.45;99907.70;1821270;78;20888;-66
2022/05/08 09:11:53;;;;;;;6.80;4.85;;;;;;;22.89;39.31;99905.40;1821494;78;21399;-67
2022/05/08 09:14:35;;;;;;;12.55;5.22;;;;;;;22.89;39.91;99905.97;1785277;80;20869;-68
2022/05/08 09:17:04;;;;;;;14.00;5.10;;;;;;;22.78;39.75;99901.40;1821810;78;20833;-67
2022/05/08 09:19:37;;;;;;;11.33;4.70;;;;;;;22.65;39.10;99898.31;1821229;78;21892;-68
2022/05/08 09:22:09;;;;;;;5.37;4.60;;;;;;;23.24;38.73;99897.06;1785449;80;20897;-69
2022/05/08 09:24:51;;;;;;;6.97;4.53;;;;;;;23.71;37.61;99892.02;1821223;78;20865;-68
2022/05/08 09:27:18;;;;;;;7.70;4.83;;;;;;;23.95;36.43;99894.92;1785429;80;20938;-68
2022/05/08 09:29:46;;;;;;;6.87;4.20;;;;;;;23.74;36.63;99896.88;1781540;78;20988;-70
2022/05/08 09:32:35;;;;;;;5.92;4.58;;;;;;;23.29;36.96;99889.22;1821887;78;21446;-70
2022/05/08 09:35:02;;;;;;;9.03;4.95;;;;;;;23.08;36.79;99889.98;1785065;80;20908;-69
2022/05/08 09:37:29;;;;;;;7.53;4.00;;;;;;;23.38;36.43;99885.88;1785435;80;20870;-68
2022/05/08 09:40:15;;;;;;;23.92;5.95;;;;;;;23.50;37.26;99881.05;1772416;80;20928;-69
2022/05/08 09:42:44;;;;;;;21.42;4.40;;;;;;;23.61;36.15;99874.03;1821486;78;20845;-69
2022/05/08 09:45:11;;;;;;;10.00;4.83;;;;;;;24.17;35.32;99875.14;1785318;80;21197;-68
2022/05/08 09:47:46;;;;;;;9.70;4.62;;;;;;;24.35;34.81;99871.65;1785241;80;21427;-68
2022/05/08 09:50:14;;;;;;;5.05;4.15;;;;;;;24.50;34.58;99866.11;1821280;78;21471;-69
2022/05/08 09:52:42;;;;;;;7.10;4.70;;;;;;;24.28;34.01;99853.59;1821700;78;20861;-69
2022/05/08 09:55:12;;;;;;;10.25;5.08;;;;;;;23.83;33.53;99855.69;1785036;80;21376;-67
2022/05/08 09:57:41;;;;;;;7.75;4.78;;;;;;;23.53;34.71;99859.84;1821479;78;21049;-68
2022/05/08 10:00:09;;;;;;;10.68;5.22;;;;;;;23.91;33.52;99858.91;1785488;80;21395;-67
2022/05/08 10:02:43;;;;;;;9.85;5.12;;;;;;;24.17;32.69;99859.48;1785142;80;20930;-71
2022/05/08 10:05:09;;;;;;;6.03;4.42;;;;;;;23.74;33.27;99851.09;1772241;78;20893;-68
2022/05/08 10:07:36;;;;;;;9.20;4.72;;;;;;;23.73;33.64;99852.78;1815090;78;20908;-68
2022/05/08 10:15:36;;;;;;;10.13;4.62;;;;;;;23.06;31.90;99844.33;1735246;80;20901;-66
2022/05/08 10:18:27;;;;;;;8.23;4.83;;;;;;;22.84;33.52;99843.20;1821689;78;23718;-65
2022/05/08 10:21:12;;;;;;;12.80;5.47;;;;;;;23.03;33.29;99850.48;1817489;78;20965;-68
2022/05/08 10:23:47;;;;;;;10.93;5.45;;;;;;;22.94;31.99;99853.78;1785382;80;21747;-66
2022/05/08 10:26:23;;;;;;;11.47;5.73;;;;;;;23.39;32.23;99844.22;1821527;78;21407;-68
2022/05/08 10:29:12;;;;;;;7.30;4.92;;;;;;;23.47;31.93;99846.09;1821758;78;20904;-69
2022/05/08 10:31:51;;;;;;;11.45;5.75;;;;;;;23.54;31.99;99850.47;1785225;80;20877;-68
2022/05/08 10:34:33;;;;;;;10.75;4.95;;;;;;;23.55;31.26;99845.23;1821710;78;20926;-67
2022/05/08 10:37:25;;;;;;;9.63;5.78;;;;;;;23.47;31.89;99835.95;1785238;80;21179;-68
2022/05/08 10:39:54;;;;;;;10.85;3.90;;;;;;;23.45;33.52;99825.89;1785350;80;20921;-67
2022/05/08 10:42:44;;;;;;;10.45;5.40;;;;;;;22.92;30.57;99821.03;1821343;78;20912;-66
2022/05/08 10:45:37;;;;;;;8.38;4.45;;;;;;;22.73;31.66;99835.12;1785416;80;20928;-69
2022/05/08 10:48:17;;;;;;;8.70;5.70;;;;;;;22.00;33.44;99837.30;1785154;80;20885;-68
2022/05/08 10:50:55;;;;;;;14.45;5.87;;;;;;;21.88;34.33;99822.92;1785373;80;21137;-67
2022/05/08 10:53:32;;;;;;;9.55;5.55;;;;;;;22.29;34.18;99824.88;1785182;79;20842;-66
2022/05/08 10:56:09;;;;;;;8.15;5.60;;;;;;;22.58;33.06;99825.52;1821773;78;20869;-68
2022/05/08 10:58:43;;;;;;;9.35;5.47;;;;;;;22.65;33.06;99829.92;1821326;78;20877;-69
2022/05/08 11:01:09;;;;;;;9.75;4.55;;;;;;;22.94;32.11;99820.14;1784370;80;20905;-68
2022/05/08 11:03:37;;;;;;;6.05;4.55;;;;;;;23.36;32.33;99819.67;1766620;80;21459;-67
2022/05/08 11:06:05;;;;;;;8.13;5.27;;;;;;;23.13;31.77;99813.70;1789474;79;20899;-68
2022/05/08 11:08:35;;;;;;;12.07;5.50;;;;;;;22.93;31.35;99815.78;1786759;80;21432;-67
2022/05/08 11:11:08;;;;;;;11.65;5.50;;;;;;;22.75;33.16;99814.50;1821396;78;20877;-68
2022/05/08 11:13:47;;;;;;;12.37;6.53;;;;;;;22.72;32.79;99815.17;1785141;80;21380;-67
2022/05/08 11:16:33;;;;;;;11.75;6.12;;;;;;;22.57;32.85;99816.52;1821293;78;21211;-67
2022/05/08 11:19:00;;;;;;;14.90;6.95;;;;;;;22.57;32.36;99821.98;1815391;78;21415;-69
2022/05/08 11:21:29;;;;;;;8.85;5.20;;;;;;;22.56;32.93;99819.56;1821435;78;20900;-68
2022/05/08 11:23:56;;;;;;;8.53;4.72;;;;;;;22.28;36.73;99809.61;1785496;80;20905;-68
2022/05/08 11:26:33;;;;;;;7.55;4.85;;;;;;;21.76;39.27;99799.55;1785131;80;20885;-67
2022/05/08 11:29:01;;;;;;;19.95;17.95;;;;;;;21.48;40.07;99799.84;1821603;78;21355;-68
2022/05/08 11:31:28;;;;;;;9.73;5.37;;;;;;;21.27;43.02;99798.28;1821477;78;20905;-67
2022/05/08 11:36:44;;;;;;;11.30;6.20;;;;;;;21.33;42.01;99792.09;1821264;78;20833;-68
2022/05/08 11:39:19;;;;;;;11.68;6.37;;;;;;;21.55;42.24;99785.72;1785435;80;21428;-67
2022/05/08 11:41:49;;;;;;;12.50;5.70;;;;;;;21.37;43.11;99783.52;1821509;78;20865;-67
2022/05/08 11:44:21;;;;;;;7.08;6.00;;;;;;;21.24;42.41;99776.27;1821496;78;20833;-67
2022/05/08 11:46:56;;;;;;;9.25;5.33;;;;;;;21.04;43.11;99767.56;1785086;80;21439;-71
2022/05/08 11:49:27;;;;;;;10.63;5.92;;;;;;;20.92;44.13;99773.66;1821635;78;21375;-66
2022/05/08 11:52:01;;;;;;;11.40;6.00;;;;;;;20.59;44.24;99775.95;1785078;80;20850;-68
2022/05/08 11:54:38;;;;;;;7.83;5.80;;;;;;;20.26;45.69;99787.70;1785379;80;21108;-68
2022/05/08 11:57:18;;;;;;;24.57;6.72;;;;;;;19.99;46.38;99787.30;1785017;80;21471;-68
2022/05/08 11:59:50;;;;;;;16.45;6.42;;;;;;;19.37;55.02;99777.84;1785351;80;20893;-61
2022/05/08 12:02:17;;;;;;;12.30;7.30;;;;;;;18.23;78.86;99764.62;1793052;79;20899;-67
2022/05/08 12:04:55;;;;;;;7.05;6.03;;;;;;;16.90;100.00;99781.81;1785394;80;20877;-68
2022/05/08 12:07:23;;;;;;;8.23;5.78;;;;;;;16.26;96.53;99792.48;1785130;80;21246;-65
2022/05/08 12:09:53;;;;;;;12.82;7.78;;;;;;;16.05;100.00;99777.79;1785275;80;20913;-65
2022/05/08 12:12:35;;;;;;;14.10;7.85;;;;;;;16.00;100.00;99777.83;1821468;78;20893;-66
2022/05/08 12:15:16;;;;;;;12.33;7.53;;;;;;;16.05;100.00;99772.92;1821518;78;20868;-66
2022/05/08 12:17:50;;;;;;;8.55;7.20;;;;;;;16.19;100.00;99762.22;1785046;80;20877;-65
2022/05/08 12:20:25;;;;;;;10.23;6.80;;;;;;;16.39;100.00;99762.03;1821535;78;21085;-66
2022/05/08 12:23:07;;;;;;;9.90;6.83;;;;;;;16.57;100.00;99759.67;1784876;79;20914;-65
2022/05/08 12:25:41;;;;;;;9.90;6.62;;;;;;;16.72;100.00;99764.35;1821373;78;20904;-67
2022/05/08 12:28:10;;;;;;;9.25;7.15;;;;;;;17.02;100.00;99762.38;1785012;80;21459;-67
2022/05/08 12:30:36;;;;;;;9.65;7.53;;;;;;;17.52;100.00;99768.77;1821647;78;20900;-64
2022/05/08 12:33:04;;;;;;;9.63;7.97;;;;;;;17.93;100.00;99765.41;1821346;78;21252;-67
2022/05/08 12:35:31;;;;;;;16.10;9.15;;;;;;;18.15;96.10;99760.69;1785607;80;20806;-66
2022/05/08 12:37:58;;;;;;;11.73;8.95;;;;;;;18.32;91.43;99767.70;1821537;78;21367;-67
2022/05/08 12:40:24;;;;;;;15.98;9.40;;;;;;;18.49;90.58;99763.60;1785103;80;20842;-67
2022/05/08 12:42:53;;;;;;;7.08;5.97;;;;;;;18.59;87.22;99764.23;1821751;78;20849;-67
2022/05/08 12:45:19;;;;;;;7.10;6.05;;;;;;;18.63;83.58;99774.73;1785157;80;21206;-67
2022/05/08 12:47:46;;;;;;;7.17;6.10;;;;;;;18.91;80.69;99767.94;1785342;80;20901;-67
2022/05/08 12:50:12;;;;;;;6.70;5.62;;;;;;;19.50;80.58;99761.23;1821222;78;20873;-68
2022/05/08 12:52:41;;;;;;;11.65;6.22;;;;;;;19.88;71.38;99767.13;1821488;78;20904;-66
2022/05/08 12:55:09;;;;;;;6.78;5.25;;;;;;;20.10;66.17;99766.88;1785036;80;20882;-68
2022/05/08 13:00:22;;;;;;;7.33;5.65;;;;;;;20.08;52.70;99766.38;1785022;80;20898;-68
2022/05/08 13:02:49;;;;;;;10.13;8.30;;;;;;;19.94;52.25;99765.64;1821869;78;20908;-68
2022/05/08 13:05:15;;;;;;;20.25;16.23;;;;;;;19.79;54.92;99762.17;1785257;80;20905;-67
2022/05/08 13:07:44;;;;;;;6.25;5.55;;;;;;;19.64;54.72;99760.60;1785448;79;20889;-69
2022/05/08 13:10:10;;;;;;;7.60;4.87;;;;;;;19.63;54.06;99758.20;1785212;79;21333;-67
2022/05/08 13:12:37;;;;;;;7.95;4.42;;;;;;;19.65;52.23;99755.98;1785373;80;20905;-67
2022/05/08 13:15:04;;;;;;;7.08;4.40;;;;;;;19.78;53.97;99746.17;1785029;80;20862;-66
2022/05/08 13:17:32;;;;;;;8.00;3.87;;;;;;;19.83;53.29;99754.20;1785248;80;20830;-69
2022/05/08 13:20:01;;;;;;;8.00;5.08;;;;;;;19.81;50.09;99748.27;1785170;80;20945;-69
2022/05/08 13:22:27;;;;;;;6.30;5.65;;;;;;;20.17;54.49;99752.25;1821546;78;21851;-69
2022/05/08 13:24:54;;;;;;;5.78;5.17;;;;;;;20.58;54.09;99747.63;1821516;78;20861;-69
2022/05/08 13:27:21;;;;;;;6.35;4.42;;;;;;;20.79;49.78;99749.22;1821245;78;21422;-67
2022/05/08 13:29:47;;;;;;;8.65;4.45;;;;;;;20.85;48.91;99746.04;1785319;80;20912;-69
2022/05/08 13:32:14;;;;;;;5.58;4.67;;;;;;;20.93;48.06;99742.52;1785151;80;20917;-68
2022/05/08 13:34:41;;;;;;;5.70;4.47;;;;;;;21.22;49.27;99743.05;1785036;80;21200;-68
2022/05/08 13:37:08;;;;;;;6.58;4.25;;;;;;;21.54;47.09;99737.13;1784975;80;20913;-69
2022/05/08 13:39:35;;;;;;;7.25;4.45;;;;;;;21.63;45.38;99737.10;1821412;78;20814;-68
2022/05/08 13:42:03;;;;;;;5.55;4.78;;;;;;;21.57;46.36;99734.31;1821261;78;20900;-68
2022/05/08 13:44:29;;;;;;;6.87;5.10;;;;;;;21.69;43.37;99732.30;1821542;78;20916;-68
2022/05/08 13:46:56;;;;;;;5.83;4.80;;;;;;;21.81;43.94;99726.97;1821439;78;21196;-68
2022/05/08 13:49:23;;;;;;;6.33;4.57;;;;;;;22.29;40.95;99719.61;1785268;80;20897;-68
2022/05/08 13:51:51;;;;;;;14.95;10.23;;;;;;;22.29;40.95;99719.61;1785283;80;21714;-67
2022/05/08 13:54:18;;;;;;;6.05;5.42;;;;;;;22.24;40.67;99715.95;1785315;80;20909;-68
2022/05/08 13:56:46;;;;;;;6.80;5.45;;;;;;;22.40;39.09;99714.03;1785416;80;20921;-68
2022/05/08 13:59:13;;;;;;;6.80;4.50;;;;;;;22.24;39.44;99714.59;1785343;80;21239;-67
2022/05/08 14:01:41;;;;;;;6.45;4.78;;;;;;;22.16;40.07;99712.64;1785249;80;20815;-67
2022/05/08 14:04:08;;;;;;;6.42;4.60;;;;;;;22.15;40.65;99715.14;1785277;80;20897;-68
2022/05/08 14:06:36;;;;;;;8.53;4.17;;;;;;;21.93;41.53;99709.92;1821212;78;20877;-67
2022/05/08 14:09:03;;;;;;;8.28;5.10;;;;;;;21.51;39.67;99708.28;1785296;80;20924;-66
2022/05/08 14:11:30;;;;;;;5.17;4.67;;;;;;;21.30;41.08;99706.75;1780713;78;21729;-66
2022/05/08 14:13:57;;;;;;;34.10;18.40;;;;;;;21.24;40.41;99711.58;1785405;80;20909;-66
2022/05/08 14:16:23;;;;;;;6.58;4.83;;;;;;;21.13;42.31;99695.27;1785263;79;20866;-66
2022/05/08 14:18:50;;;;;;;5.60;5.00;;;;;;;21.03;41.12;99701.05;1785146;80;20830;-66
2022/05/08 14:21:16;;;;;;;9.15;5.37;;;;;;;20.87;40.85;99702.05;1785308;80;20881;-64
2022/05/08 14:23:43;;;;;;;6.05;4.80;;;;;;;20.82;41.79;99698.91;1785531;80;21232;-66
2022/05/08 14:26:10;;;;;;;8.75;7.12;;;;;;;20.84;41.52;99705.43;1785119;80;20882;-67
2022/05/08 14:28:36;;;;;;;7.95;5.53;;;;;;;20.86;41.29;99698.53;1821430;78;20857;-66
2022/05/08 14:36:34;;;;;;;5.90;4.90;;;;;;;21.94;40.66;99696.48;1790253;79;21260;-66
2022/05/08 14:39:02;;;;;;;8.13;4.90;;;;;;;22.59;39.77;99693.11;1785455;79;20858;-66
2022/05/08 14:41:29;;;;;;;7.47;4.78;;;;;;;22.99;38.20;99697.61;1821509;78;20876;-67
2022/05/08 14:43:55;;;;;;;7.42;4.30;;;;;;;23.11;37.58;99683.19;1785428;80;20878;-66
2022/05/08 14:46:22;;;;;;;6.92;4.87;;;;;;;23.27;38.12;99682.83;1821342;78;20873;-68
2022/05/08 14:48:49;;;;;;;6.75;4.60;;;;;;;23.68;38.46;99681.70;1785490;80;21399;-67
2022/05/08 14:51:15;;;;;;;4.50;3.92;;;;;;;23.87;37.80;99686.12;1821388;78;21437;-67
2022/05/08 14:53:43;;;;;;;6.28;4.05;;;;;;;23.81;36.27;99682.55;1821809;78;20920;-67
2022/05/08 14:56:12;;;;;;;5.53;4.37;;;;;;;23.89;36.15;99684.42;1821342;78;21485;-67
2022/05/08 14:58:38;;;;;;;5.42;4.30;;;;;;;24.34;36.23;99685.70;1785519;79;21392;-67
2022/05/08 15:01:05;;;;;;;5.67;4.30;;;;;;;24.49;35.47;99688.94;1821556;78;21197;-67
2022/05/08 15:03:32;;;;;;;6.30;3.80;;;;;;;24.39;35.27;99690.16;1821881;78;20884;-67
2022/05/08 15:05:59;;;;;;;7.97;4.43;;;;;;;23.85;35.79;99683.48;1785492;80;21450;-67
2022/05/08 15:08:27;;;;;;;5.70;4.25;;;;;;;23.85;35.79;99683.48;1785346;80;21377;-66
2022/05/08 15:10:54;;;;;;;6.00;4.50;;;;;;;23.51;36.90;99682.09;1785132;80;20877;-67
2022/05/08 15:13:20;;;;;;;5.75;4.28;;;;;;;23.06;38.16;99675.98;1785409;80;21730;-67
2022/05/08 15:15:47;;;;;;;6.42;5.10;;;;;;;23.09;37.57;99679.98;1821518;78;20912;-67
2022/05/08 15:21:00;;;;;;;5.67;4.03;;;;;;;23.02;37.42;99683.82;1785304;80;20838;-66
2022/05/08 15:23:28;;;;;;;7.17;4.53;;;;;;;22.70;37.50;99680.63;1785662;80;20963;-67
2022/05/08 15:25:54;;;;;;;9.68;4.95;;;;;;;22.60;38.17;99677.71;1785111;80;21837;-67
2022/05/08 15:28:23;;;;;;;10.50;4.60;;;;;;;22.75;38.33;99681.01;1821507;78;20830;-67
2022/05/08 15:30:50;;;;;;;6.17;4.30;;;;;;;22.67;38.38;99680.73;1785081;80;21420;-70
2022/05/08 15:33:17;;;;;;;4.93;3.77;;;;;;;22.75;38.21;99684.54;1821559;78;20853;-68
2022/05/08 15:35:44;;;;;;;5.80;4.47;;;;;;;22.60;37.29;99682.39;1785649;80;20928;-66
2022/05/08 15:38:10;;;;;;;5.22;4.08;;;;;;;22.30;37.70;99682.39;1785138;80;21153;-65
2022/05/08 15:40:37;;;;;;;5.62;4.60;;;;;;;22.21;38.59;99687.09;1821496;78;20931;-65
2022/05/08 15:43:05;;;;;;;4.15;3.62;;;;;;;22.40;38.60;99681.22;1821380;78;20818;-66
2022/05/08 15:45:31;;;;;;;4.65;4.12;;;;;;;22.50;38.21;99682.77;1793307;79;20942;-67
2022/05/08 15:47:58;;;;;;;5.67;3.77;;;;;;;22.39;37.34;99688.63;1789415;80;20909;-67
2022/05/08 15:50:24;;;;;;;5.72;3.87;;;;;;;21.93;37.43;99689.42;1821538;78;21203;-68
2022/05/08 15:52:54;;;;;;;4.92;3.83;;;;;;;21.48;38.59;99688.45;1821314;78;21408;-67
2022/05/08 15:55:23;;;;;;;3.52;3.22;;;;;;;21.10;39.63;99685.00;1785221;80;21403;-67
2022/05/08 15:57:48;;;;;;;4.47;3.67;;;;;;;20.81;40.71;99684.25;1820932;78;20916;-66
2022/05/08 16:00:15;;;;;;;4.70;3.75;;;;;;;20.59;42.37;99682.44;1785199;79;20924;-67
2022/05/08 16:02:42;;;;;;;4.37;3.70;;;;;;;20.35;42.71;99680.33;1785696;80;21910;-67
2022/05/08 16:05:09;;;;;;;8.40;4.50;;;;;;;20.15;45.02;99675.45;1785038;80;20885;-68
2022/05/08 16:07:40;;;;;;;5.30;3.90;;;;;;;19.97;45.22;99686.05;1793174;78;20852;-68
2022/05/08 16:10:08;;;;;;;9.28;4.42;;;;;;;19.78;46.16;99677.52;1821531;78;20920;-67
2022/05/08 16:23:37;;;;;;;5.47;4.78;;;;;;;19.12;49.50;99686.71;1821339;78;20908;-66
2022/05/08 16:26:05;;;;;;;6.65;3.85;;;;;;;18.96;49.27;99679.47;1785409;80;20893;-67
2022/05/08 16:28:33;;;;;;;6.50;4.23;;;;;;;18.80;49.25;99681.70;1821470;78;21909;-66
2022/05/08 16:31:03;;;;;;;7.90;4.70;;;;;;;18.66;49.32;99685.53;1785059;80;20834;-67
2022/05/08 16:33:30;;;;;;;10.35;4.45;;;;;;;18.49;50.47;99690.22;1821266;78;20833;-67
2022/05/08 16:36:01;;;;;;;9.95;4.35;;;;;;;18.37;52.07;99687.47;1784906;80;20862;-66
2022/05/08 16:38:29;;;;;;;5.37;3.83;;;;;;;18.27;53.43;99684.13;1821328;78;20888;-70
2022/05/08 16:40:56;;;;;;;4.40;3.37;;;;;;;18.14;49.26;99675.67;1821375;78;21742;-65
2022/05/08 16:43:23;;;;;;;3.85;2.95;;;;;;;18.14;49.10;99681.11;1821591;78;20892;-67
2022/05/08 16:45:50;;;;;;;5.58;3.40;;;;;;;18.14;47.79;99671.60;1821389;78;21383;-68
2022/05/08 16:48:16;;;;;;;3.70;3.20;;;;;;;18.16;45.86;99681.62;1785271;80;20908;-68
2022/05/08 16:50:43;;;;;;;3.77;2.87;;;;;;;18.19;42.83;99682.37;1821260;78;20912;-65
2022/05/08 16:53:10;;;;;;;5.53;3.35;;;;;;;18.30;42.40;99687.07;1785320;80;21097;-68
2022/05/08 16:55:37;;;;;;;3.33;3.00;;;;;;;18.38;41.55;99687.71;1821401;78;21442;-69
2022/05/08 16:58:04;;;;;;;4.22;3.42;;;;;;;18.37;41.70;99691.55;1785302;80;21459;-68
2022/05/08 17:00:31;;;;;;;3.85;3.45;;;;;;;18.31;43.34;99690.59;1821347;78;20872;-67
2022/05/08 17:02:57;;;;;;;4.42;3.95;;;;;;;18.08;46.87;99678.78;1821630;78;20873;-68
2022/05/08 17:05:25;;;;;;;5.58;3.58;;;;;;;17.86;48.54;99674.02;1791079;78;21254;-68
2022/05/08 17:07:53;;;;;;;4.35;3.95;;;;;;;17.83;49.77;99671.36;1821739;78;20853;-67
2022/05/08 17:10:24;;;;;;;8.53;3.72;;;;;;;17.75;52.93;99676.09;1821345;78;20937;-68
2022/05/08 17:12:48;;;;;;;4.28;3.87;;;;;;;17.61;54.82;99668.47;1784882;80;20889;-68
2022/05/08 17:15:15;;;;;;;5.70;4.42;;;;;;;17.44;56.38;99662.23;1821234;78;21474;-68
2022/05/08 17:17:45;;;;;;;6.55;4.65;;;;;;;17.33;56.14;99666.47;1785337;80;21429;-67
2022/05/08 17:20:11;;;;;;;7.78;5.33;;;;;;;17.28;54.86;99676.05;1785083;80;21396;-66
2022/05/08 17:22:38;;;;;;;11.68;6.60;;;;;;;17.20;57.04;99686.74;1785134;80;21416;-67
2022/05/08 17:25:06;;;;;;;8.45;5.65;;;;;;;17.08;61.24;99689.37;1798261;79;20916;-66
2022/05/08 17:30:17;;;;;;;5.90;5.10;;;;;;;16.86;56.85;99690.50;1785295;80;21028;-69
2022/05/08 17:32:44;;;;;;;7.05;6.35;;;;;;;16.83;61.88;99683.77;1785022;80;20878;-68
2022/05/08 17:35:10;;;;;;;9.15;6.40;;;;;;;16.78;58.14;99687.04;1785421;80;21463;-67
2022/05/08 17:37:39;;;;;;;9.18;6.05;;;;;;;16.74;58.23;99694.96;1821286;78;20908;-67
2022/05/08 17:40:07;;;;;;;7.85;5.55;;;;;;;16.71;58.63;99692.84;1821453;78;20916;-68
2022/05/08 17:42:34;;;;;;;11.73;5.62;;;;;;;16.66;59.66;99694.27;1785460;80;21795;-68
2022/05/08 17:45:00;;;;;;;15.70;5.60;;;;;;;16.61;60.93;99697.84;1785328;80;20873;-68
2022/05/08 17:47:27;;;;;;;11.20;6.72;;;;;;;16.48;61.22;99700.68;1785010;80;20873;-68
2022/05/08 17:49:54;;;;;;;9.93;7.08;;;;;;;16.39;62.37;99702.95;1785292;80;20905;-66
2022/05/08 17:52:20;;;;;;;14.83;10.32;;;;;;;16.29;63.72;99704.70;1785376;80;20913;-67
2022/05/08 17:54:48;;;;;;;16.42;11.78;;;;;;;16.19;64.54;99699.41;1785380;80;21201;-66